Time;durP1;ratioP1;P1;durP2;ratioP2;P2;SDS_P1;SDS_P2;PMS_P1;PMS_P2;Temp;Humidity;BMP_temperature;BMP_pressure;BME280_temperature;BME280_humidity;BME280_pressure;Samples;Min_cycle;Max_cycle;Signal;HPM_P1;HPM_P2
2024/01/30 00:02:14;;;;;;;20.20;14.17;;;;;;;18.11;45.95;101704.53;5050576;28;20181;-66
2024/01/30 00:04:40;;;;;;;18.10;13.27;;;;;;;18.09;46.32;101698.34;5051224;28;20525;-66
2024/01/30 00:07:05;;;;;;;20.43;12.90;;;;;;;18.05;46.76;101705.91;5028730;28;20531;-66
2024/01/30 00:09:31;;;;;;;19.53;13.50;;;;;;;18.06;46.55;101699.03;5009706;28;20587;-68
2024/01/30 00:11:56;;;;;;;24.13;14.47;;;;;;;18.10;46.62;101702.03;5033344;28;20213;-65
2024/01/30 00:14:22;;;;;;;23.07;13.63;;;;;;;18.11;46.83;101703.72;5045806;28;20995;-66
2024/01/30 00:16:48;;;;;;;16.33;12.90;;;;;;;18.09;46.92;101704.06;5051592;28;20187;-64
2024/01/30 00:19:14;;;;;;;18.07;13.33;;;;;;;18.04;47.15;101706.25;5064331;28;20417;-65
2024/01/30 00:21:39;;;;;;;19.73;13.10;;;;;;;18.02;46.91;101697.22;5056398;28;20201;-65
2024/01/30 00:24:05;;;;;;;17.23;12.07;;;;;;;18.09;47.02;101691.78;5056086;28;20197;-64
2024/01/30 00:26:30;;;;;;;16.50;12.43;;;;;;;18.10;47.07;101694.28;5055867;28;20225;-65
2024/01/30 00:28:56;;;;;;;17.57;12.07;;;;;;;18.08;46.90;101692.97;5045756;28;20186;-65
2024/01/30 00:31:21;;;;;;;14.67;11.60;;;;;;;18.08;47.14;101699.53;5025855;28;20168;-64
2024/01/30 00:33:47;;;;;;;16.00;11.10;;;;;;;18.10;46.84;101700.00;5034795;28;20183;-64
2024/01/30 00:36:12;;;;;;;20.37;11.50;;;;;;;18.11;47.00;101698.81;5035695;28;20254;-65
2024/01/30 00:38:38;;;;;;;15.43;11.40;;;;;;;18.09;47.47;101708.94;5053425;28;20294;-64
2024/01/30 00:41:04;;;;;;;18.60;11.80;;;;;;;18.05;47.44;101697.34;5035377;28;20187;-64
2024/01/30 00:43:31;;;;;;;15.63;11.00;;;;;;;18.10;47.33;101702.88;5053042;28;20639;-65
2024/01/30 00:45:56;;;;;;;15.77;11.53;;;;;;;18.08;47.86;101699.53;5053338;28;20233;-64
2024/01/30 00:48:22;;;;;;;14.63;10.13;;;;;;;18.02;48.84;101702.91;5034802;28;20441;-65
2024/01/30 00:50:47;;;;;;;16.47;10.53;;;;;;;18.04;48.41;101711.97;5033651;28;20175;-65
2024/01/30 00:53:12;;;;;;;18.43;12.03;;;;;;;18.03;48.35;101705.44;5035385;28;20175;-64
2024/01/30 00:55:38;;;;;;;15.07;10.40;;;;;;;18.07;48.11;101706.41;5063846;28;20182;-64
2024/01/30 00:58:04;;;;;;;16.40;12.00;;;;;;;18.01;48.60;101712.69;5031392;28;20200;-65
2024/01/30 01:00:30;;;;;;;18.27;11.53;;;;;;;18.03;48.37;101705.44;5018805;28;20258;-66
2024/01/30 01:02:56;;;;;;;18.00;11.90;;;;;;;18.05;48.38;101713.66;5034558;28;20514;-64
2024/01/30 01:05:21;;;;;;;17.03;10.87;;;;;;;18.06;48.38;101713.31;5032246;28;20848;-65
2024/01/30 01:07:50;;;;;;;15.80;10.97;;;;;;;18.00;48.99;101711.81;5035513;28;20542;-66
2024/01/30 01:10:17;;;;;;;15.27;9.90;;;;;;;17.98;49.49;101717.06;5036390;28;20179;-65
2024/01/30 01:12:42;;;;;;;14.53;10.83;;;;;;;17.96;49.31;101713.69;5036429;28;20792;-65
2024/01/30 01:15:09;;;;;;;15.97;10.40;;;;;;;17.93;48.91;101720.09;5019612;28;20461;-65
2024/01/30 01:17:38;;;;;;;14.47;10.03;;;;;;;17.96;48.96;101710.84;5032907;28;20310;-64
2024/01/30 01:20:05;;;;;;;14.03;9.60;;;;;;;18.00;48.65;101714.69;5022357;28;20436;-65
2024/01/30 01:22:30;;;;;;;15.37;10.27;;;;;;;17.97;49.42;101712.50;5052716;28;20421;-64
2024/01/30 01:24:56;;;;;;;13.80;10.20;;;;;;;17.96;49.67;101710.84;5016220;28;20937;-65
2024/01/30 01:27:21;;;;;;;12.13;9.90;;;;;;;17.95;49.47;101709.16;5038276;28;20221;-65
2024/01/30 01:29:47;;;;;;;14.93;10.40;;;;;;;17.95;49.04;101712.03;5033385;28;20191;-65
2024/01/30 01:32:12;;;;;;;13.17;9.40;;;;;;;17.92;49.21;101706.16;5025983;28;20212;-65
2024/01/30 01:34:38;;;;;;;13.80;10.03;;;;;;;17.95;49.70;101712.03;5052384;28;20248;-65
2024/01/30 01:37:03;;;;;;;14.17;9.97;;;;;;;17.91;49.82;101707.34;5052348;28;20183;-64
2024/01/30 01:39:29;;;;;;;14.50;9.73;;;;;;;17.93;49.99;101710.69;5035944;28;20175;-64
2024/01/30 01:41:54;;;;;;;14.40;10.40;;;;;;;17.89;50.06;101701.13;5032806;28;20247;-65
2024/01/30 01:44:20;;;;;;;12.80;9.90;;;;;;;17.92;49.91;101707.00;5041218;28;20167;-65
2024/01/30 01:46:45;;;;;;;13.60;9.33;;;;;;;17.92;50.17;101704.16;5049833;28;20265;-65
2024/01/30 01:49:11;;;;;;;12.57;9.03;;;;;;;17.93;49.86;101700.09;5038283;28;20179;-65
2024/01/30 01:51:36;;;;;;;13.10;9.90;;;;;;;17.91;50.02;101705.31;5034917;28;20167;-65
2024/01/30 01:54:03;;;;;;;13.50;9.50;;;;;;;17.89;50.09;101701.13;5029084;28;20258;-66
2024/01/30 01:56:29;;;;;;;14.30;9.10;;;;;;;17.90;50.25;101699.97;5064781;28;20178;-65
2024/01/30 01:58:54;;;;;;;12.00;8.90;;;;;;;17.86;50.75;101702.63;5046844;28;21015;-64
2024/01/30 02:01:20;;;;;;;14.80;9.20;;;;;;;17.90;49.80;101692.22;5034752;28;20174;-65
2024/01/30 02:03:46;;;;;;;14.47;10.20;;;;;;;17.90;49.73;101697.94;5034772;28;20194;-64
2024/01/30 02:06:12;;;;;;;12.40;8.87;;;;;;;17.89;50.27;101706.84;5044320;28;20171;-65
2024/01/30 02:08:38;;;;;;;13.93;9.23;;;;;;;17.91;50.05;101704.50;5035847;28;20712;-65
2024/01/30 02:11:03;;;;;;;13.20;9.57;;;;;;;17.88;49.86;101702.31;5035276;28;20421;-64
2024/01/30 02:13:29;;;;;;;10.87;8.70;;;;;;;17.86;50.52;101699.78;5035293;28;20186;-65
2024/01/30 02:15:55;;;;;;;11.13;8.63;;;;;;;17.87;50.43;101704.34;5051638;28;20178;-64
2024/01/30 02:18:21;;;;;;;10.47;8.60;;;;;;;17.85;50.16;101700.97;5032233;28;20215;-65
2024/01/30 02:20:47;;;;;;;10.90;8.60;;;;;;;17.85;50.42;101694.44;5019392;28;20209;-65
2024/01/30 02:23:13;;;;;;;13.30;9.53;;;;;;;17.85;50.09;101700.97;5034100;28;20397;-65
2024/01/30 02:25:43;;;;;;;14.23;10.63;;;;;;;17.85;50.15;101695.25;5068164;28;20487;-65
2024/01/30 02:28:12;;;;;;;11.23;8.77;;;;;;;17.86;50.71;101701.81;5030778;28;21185;-64
2024/01/30 02:30:42;;;;;;;11.10;8.77;;;;;;;17.86;50.60;101707.53;5043074;28;20441;-65
2024/01/30 02:33:08;;;;;;;10.97;8.03;;;;;;;17.84;50.50;101707.88;5031787;28;20948;-65
2024/01/30 02:35:34;;;;;;;13.70;8.40;;;;;;;17.86;50.50;101707.53;5034712;28;20421;-66
2024/01/30 02:37:59;;;;;;;11.97;9.07;;;;;;;17.84;50.23;101707.88;5069357;28;20210;-65
2024/01/30 02:40:25;;;;;;;13.20;9.43;;;;;;;17.84;50.41;101704.16;5018946;28;20647;-65
2024/01/30 02:42:50;;;;;;;11.77;8.47;;;;;;;17.86;50.66;101713.25;5040128;28;20171;-65
2024/01/30 02:45:16;;;;;;;11.43;8.70;;;;;;;17.82;51.22;101707.38;5018860;28;20183;-64
2024/01/30 02:47:41;;;;;;;14.40;9.93;;;;;;;17.83;50.96;101709.06;5031784;28;20865;-66
2024/01/30 02:50:07;;;;;;;10.73;8.10;;;;;;;17.81;50.60;101705.69;5049220;28;20233;-66
2024/01/30 02:52:33;;;;;;;10.43;8.50;;;;;;;17.82;50.94;101709.41;5049867;28;20681;-66
2024/01/30 02:54:58;;;;;;;10.87;8.37;;;;;;;17.83;50.70;101702.50;5066941;28;20179;-66
2024/01/30 02:57:23;;;;;;;9.50;7.50;;;;;;;17.81;50.36;101697.13;5043548;28;20207;-64
2024/01/30 02:59:49;;;;;;;11.60;8.13;;;;;;;17.84;50.58;101699.31;5068989;28;20197;-65
2024/01/30 03:02:14;;;;;;;11.20;8.40;;;;;;;17.81;51.25;101694.25;5046823;28;20171;-65
2024/01/30 03:04:43;;;;;;;11.50;8.90;;;;;;;17.79;51.35;101696.63;5040324;28;20180;-65
2024/01/30 03:07:09;;;;;;;11.40;7.90;;;;;;;17.77;51.09;101693.28;5038161;28;20639;-64
2024/01/30 03:09:34;;;;;;;10.90;8.53;;;;;;;17.80;51.19;101691.78;5018735;28;20487;-65
2024/01/30 03:12:00;;;;;;;10.60;8.43;;;;;;;17.78;51.02;101700.69;5048862;28;20684;-65
2024/01/30 03:14:26;;;;;;;11.40;7.70;;;;;;;17.81;50.88;101699.97;5070048;28;20198;-65
2024/01/30 03:16:51;;;;;;;11.23;8.30;;;;;;;17.78;50.80;101694.97;5073501;28;20190;-66
2024/01/30 03:19:17;;;;;;;11.10;8.03;;;;;;;17.79;51.55;101696.63;5040268;28;20207;-64
2024/01/30 03:21:42;;;;;;;11.73;7.93;;;;;;;17.79;51.03;101705.22;5017874;28;20187;-65
2024/01/30 03:24:09;;;;;;;10.90;7.90;;;;;;;17.77;51.03;101695.31;5042114;28;20182;-64
2024/01/30 03:26:34;;;;;;;11.33;8.20;;;;;;;17.77;50.91;101699.00;5035599;28;20540;-65
2024/01/30 03:28:59;;;;;;;11.30;7.60;;;;;;;17.80;50.68;101692.59;5074179;28;20428;-65
2024/01/30 03:31:25;;;;;;;11.53;8.73;;;;;;;17.78;50.64;101700.69;5053026;28;20197;-65
2024/01/30 03:33:50;;;;;;;11.30;8.50;;;;;;;17.77;50.71;101704.72;5062545;28;20304;-64
2024/01/30 03:36:16;;;;;;;10.07;8.33;;;;;;;17.74;51.38;101696.81;5056155;28;20213;-64
2024/01/30 03:38:41;;;;;;;11.07;8.10;;;;;;;17.79;50.58;101704.34;5056395;28;20204;-65
2024/01/30 03:41:10;;;;;;;11.73;8.20;;;;;;;17.76;51.34;101703.03;5072991;28;20732;-65
2024/01/30 03:43:36;;;;;;;9.70;7.90;;;;;;;17.77;51.55;101706.72;5055231;28;20193;-65
2024/01/30 03:46:02;;;;;;;9.90;7.80;;;;;;;17.75;51.36;101700.53;5069832;28;21077;-65
2024/01/30 03:48:28;;;;;;;10.07;7.80;;;;;;;17.77;51.26;101707.59;5054307;28;20179;-64
2024/01/30 03:50:53;;;;;;;11.67;7.20;;;;;;;17.75;51.34;101715.63;5034990;28;20425;-64
2024/01/30 03:53:19;;;;;;;9.60;7.13;;;;;;;17.76;51.04;101708.72;5048600;28;20175;-65
2024/01/30 03:55:44;;;;;;;10.07;7.40;;;;;;;17.75;50.96;101714.81;5053686;28;20187;-64
2024/01/30 03:58:09;;;;;;;10.47;7.60;;;;;;;17.78;51.34;101716.97;5058830;28;20206;-64
2024/01/30 04:00:35;;;;;;;10.77;7.40;;;;;;;17.75;50.96;101707.06;5039015;28;20187;-65
2024/01/30 04:03:01;;;;;;;9.63;8.33;;;;;;;17.76;50.69;101708.72;5079471;28;20189;-66
2024/01/30 04:05:26;;;;;;;9.00;7.53;;;;;;;17.75;50.88;101707.06;5073001;28;20185;-65
2024/01/30 04:07:51;;;;;;;11.23;8.07;;;;;;;17.78;50.83;101702.69;5039701;28;20546;-65
2024/01/30 04:10:17;;;;;;;10.10;7.57;;;;;;;17.80;51.41;101704.03;5061881;28;20489;-64
2024/01/30 04:12:42;;;;;;;10.00;7.70;;;;;;;17.73;51.62;101700.00;5062151;28;20183;-65
2024/01/30 04:15:08;;;;;;;9.53;7.40;;;;;;;17.73;51.39;101705.72;5066785;28;20263;-66
2024/01/30 04:17:34;;;;;;;10.50;7.50;;;;;;;17.74;51.34;101702.53;5064935;28;20210;-65
2024/01/30 04:19:59;;;;;;;11.63;7.40;;;;;;;17.75;50.85;101698.50;5072337;28;20251;-66
2024/01/30 04:22:25;;;;;;;9.63;7.53;;;;;;;17.75;50.91;101701.34;5073120;28;20186;-66
2024/01/30 04:24:50;;;;;;;9.93;7.20;;;;;;;17.74;51.26;101705.38;5088880;28;20190;-65
2024/01/30 04:27:15;;;;;;;11.50;7.70;;;;;;;17.73;50.96;101703.72;5052489;28;20691;-65
2024/01/30 04:29:41;;;;;;;8.47;6.30;;;;;;;17.77;51.11;101698.16;5087505;28;20649;-65
2024/01/30 04:32:06;;;;;;;9.40;7.23;;;;;;;17.72;51.47;101699.19;5054313;28;20573;-65
2024/01/30 04:34:32;;;;;;;10.50;7.17;;;;;;;17.70;52.07;101698.69;5087642;28;20580;-65
2024/01/30 04:36:57;;;;;;;11.70;8.50;;;;;;;17.76;50.64;101703.03;5054387;28;20186;-65
2024/01/30 04:39:23;;;;;;;8.90;7.10;;;;;;;17.74;51.07;101693.97;5055023;28;20213;-64
2024/01/30 04:41:48;;;;;;;8.53;6.53;;;;;;;17.74;50.67;101702.53;5066728;28;20187;-65
2024/01/30 04:44:14;;;;;;;10.40;7.00;;;;;;;17.74;51.42;101702.53;5035426;28;20244;-65
2024/01/30 04:46:39;;;;;;;9.97;7.00;;;;;;;17.75;51.05;101707.06;5087517;28;20250;-65
2024/01/30 04:49:07;;;;;;;8.37;6.40;;;;;;;17.77;51.68;101704.72;5056293;28;20174;-65
2024/01/30 04:51:33;;;;;;;8.20;6.40;;;;;;;17.75;51.51;101701.34;5069324;28;20229;-64
2024/01/30 04:53:58;;;;;;;13.57;7.73;;;;;;;17.75;51.24;101700.53;5090944;28;20540;-65
2024/01/30 04:56:24;;;;;;;8.60;6.80;;;;;;;17.75;50.96;101701.34;5071828;28;21067;-65
2024/01/30 04:58:49;;;;;;;7.57;6.57;;;;;;;17.70;51.44;101704.38;5090852;28;20206;-65
2024/01/30 05:01:16;;;;;;;9.67;6.73;;;;;;;17.76;50.87;101694.44;5040931;28;20522;-65
2024/01/30 05:03:41;;;;;;;9.63;7.00;;;;;;;17.75;51.24;101704.22;5083757;28;20178;-65
2024/01/30 05:06:07;;;;;;;7.63;6.00;;;;;;;17.73;51.73;101700.00;5084684;28;20458;-65
2024/01/30 05:08:32;;;;;;;7.07;5.93;;;;;;;17.75;52.11;101707.06;5052066;28;20692;-65
2024/01/30 05:11:00;;;;;;;9.13;7.23;;;;;;;17.76;51.04;101705.88;5053859;28;20934;-65
2024/01/30 05:13:26;;;;;;;8.50;6.87;;;;;;;17.74;51.24;101701.69;5055126;28;20186;-65
2024/01/30 05:15:51;;;;;;;8.80;7.00;;;;;;;17.76;51.33;101696.50;5055416;28;20778;-64
2024/01/30 05:18:16;;;;;;;9.63;7.30;;;;;;;17.75;51.60;101703.38;5061160;28;20211;-64
2024/01/30 05:20:42;;;;;;;9.13;7.10;;;;;;;17.76;51.32;101699.34;5054695;28;20566;-65
2024/01/30 05:23:07;;;;;;;8.23;7.00;;;;;;;17.76;51.02;101705.88;5064012;28;20751;-65
2024/01/30 05:25:33;;;;;;;10.37;7.23;;;;;;;17.78;50.58;101711.25;5055413;28;20163;-65
2024/01/30 05:27:58;;;;;;;11.07;7.23;;;;;;;17.76;51.89;101705.88;5054512;28;20229;-65
2024/01/30 05:30:24;;;;;;;9.03;6.77;;;;;;;17.74;51.51;101711.09;5068013;28;20560;-65
2024/01/30 05:32:49;;;;;;;9.37;6.90;;;;;;;17.74;51.91;101716.81;5055990;28;20211;-65
2024/01/30 05:35:15;;;;;;;8.87;6.77;;;;;;;17.76;50.94;101714.44;5088188;28;20179;-65
2024/01/30 05:37:40;;;;;;;8.67;6.53;;;;;;;17.75;50.90;101718.50;5049707;28;20214;-65
2024/01/30 05:40:06;;;;;;;10.60;7.00;;;;;;;17.75;51.20;101718.50;5040251;28;20185;-66
2024/01/30 05:42:32;;;;;;;8.83;7.03;;;;;;;17.72;51.88;101722.03;5078747;28;20503;-65
2024/01/30 05:44:57;;;;;;;7.50;5.90;;;;;;;17.77;51.13;101724.72;5077412;28;20473;-65
2024/01/30 05:47:23;;;;;;;8.60;6.63;;;;;;;17.78;51.35;101725.53;5059223;28;20245;-64
2024/01/30 05:49:48;;;;;;;7.30;5.80;;;;;;;17.74;51.40;101719.69;5086649;28;20175;-65
2024/01/30 05:52:15;;;;;;;9.30;7.00;;;;;;;17.52;48.96;101719.06;5051805;28;20562;-65
2024/01/30 05:54:40;;;;;;;18.37;12.40;;;;;;;16.73;41.29;101715.75;5067924;28;20192;-65
2024/01/30 05:57:06;;;;;;;15.97;11.40;;;;;;;16.29;43.20;101721.69;5067506;28;20449;-65
2024/01/30 05:59:31;;;;;;;20.73;12.47;;;;;;;16.59;45.06;101723.63;5073168;28;20185;-66
2024/01/30 06:01:57;;;;;;;18.20;12.23;;;;;;;17.27;42.03;101717.06;5053613;28;20195;-64
2024/01/30 06:04:23;;;;;;;20.30;12.67;;;;;;;17.56;42.31;101714.38;5069892;28;20190;-65
2024/01/30 06:06:48;;;;;;;22.63;11.70;;;;;;;17.77;42.96;101715.28;5075018;28;20179;-65
2024/01/30 06:09:14;;;;;;;17.53;11.00;;;;;;;18.20;42.49;101702.47;5049417;28;20695;-68
2024/01/30 06:11:39;;;;;;;18.67;11.10;;;;;;;18.53;42.50;101714.09;5039025;28;20193;-66
2024/01/30 06:14:05;;;;;;;19.23;10.60;;;;;;;18.69;42.81;101704.53;5031323;28;20210;-67
2024/01/30 06:16:30;;;;;;;17.87;10.97;;;;;;;18.78;41.88;101704.47;5034552;28;20513;-66
2024/01/30 06:18:56;;;;;;;16.23;10.00;;;;;;;18.82;42.86;101702.59;5083606;28;20205;-67
2024/01/30 06:21:22;;;;;;;17.63;10.27;;;;;;;18.59;42.87;101713.53;5073900;28;20210;-68
2024/01/30 06:23:47;;;;;;;16.50;10.20;;;;;;;18.77;43.19;101717.94;5084525;28;20706;-67
2024/01/30 06:26:13;;;;;;;18.13;11.13;;;;;;;18.85;43.46;101713.31;5066341;28;20190;-66
2024/01/30 06:28:38;;;;;;;14.13;9.80;;;;;;;18.88;43.55;101712.63;5056369;28;20226;-66
2024/01/30 06:31:04;;;;;;;14.93;9.83;;;;;;;18.43;44.31;101723.91;5050088;28;20182;-67
2024/01/30 06:33:29;;;;;;;17.90;9.90;;;;;;;18.28;44.55;101726.47;5084520;28;20182;-65
2024/01/30 06:35:55;;;;;;;13.80;9.30;;;;;;;18.28;44.67;101720.75;5088870;28;20593;-66
2024/01/30 06:38:20;;;;;;;12.83;9.17;;;;;;;18.23;44.95;101720.97;5055248;28;20221;-67
2024/01/30 06:40:46;;;;;;;14.57;8.60;;;;;;;18.33;45.66;101720.59;5071541;28;20185;-67
2024/01/30 06:43:11;;;;;;;13.20;9.40;;;;;;;18.47;45.93;101718.34;5053998;28;20182;-67
2024/01/30 06:45:37;;;;;;;13.67;9.50;;;;;;;18.35;46.00;101721.09;5053885;28;20187;-68
2024/01/30 06:48:03;;;;;;;17.83;9.50;;;;;;;18.27;47.39;101719.09;5045998;28;20183;-68
2024/01/30 06:50:28;;;;;;;16.70;10.00;;;;;;;18.22;47.79;101733.59;5066111;28;20174;-67
2024/01/30 06:52:53;;;;;;;15.63;9.30;;;;;;;18.21;47.54;101718.44;5062799;28;20236;-66
2024/01/30 06:55:19;;;;;;;14.30;10.30;;;;;;;18.10;47.69;101722.03;5065897;28;20186;-66
2024/01/30 06:57:44;;;;;;;15.70;10.23;;;;;;;18.14;48.67;101720.16;5041555;28;20255;-67
2024/01/30 07:00:10;;;;;;;16.90;9.63;;;;;;;18.13;47.66;101725.06;5073217;28;20811;-66
2024/01/30 07:02:36;;;;;;;16.60;8.80;;;;;;;18.06;47.79;101721.88;5056954;28;20206;-67
2024/01/30 07:05:02;;;;;;;14.23;9.17;;;;;;;17.96;47.28;101719.41;5037920;28;20440;-65
2024/01/30 07:07:28;;;;;;;12.77;8.63;;;;;;;17.96;48.24;101724.31;5057124;28;20297;-66
2024/01/30 07:09:56;;;;;;;15.27;9.30;;;;;;;17.91;47.75;101719.59;5072818;28;20876;-65
2024/01/30 07:12:22;;;;;;;13.27;8.70;;;;;;;17.96;48.26;101724.31;5040114;28;20196;-66
2024/01/30 07:14:48;;;;;;;16.50;7.80;;;;;;;17.98;48.66;101717.06;5039233;28;20823;-66
2024/01/30 07:17:13;;;;;;;18.10;8.80;;;;;;;17.90;49.33;101725.69;5075545;28;20435;-66
2024/01/30 07:19:39;;;;;;;20.87;8.27;;;;;;;17.90;49.71;101725.69;5077205;28;20850;-66
2024/01/30 07:22:04;;;;;;;21.40;8.73;;;;;;;17.89;49.61;101736.25;5094309;28;20178;-67
2024/01/30 07:24:30;;;;;;;14.57;9.77;;;;;;;17.90;49.24;101729.34;5053394;28;20177;-66
2024/01/30 07:26:55;;;;;;;13.60;8.10;;;;;;;17.93;50.00;101731.53;5052337;28;20234;-66
2024/01/30 07:29:21;;;;;;;14.67;7.80;;;;;;;17.96;49.16;101732.88;5054297;28;20160;-66
2024/01/30 07:31:47;;;;;;;17.43;7.87;;;;;;;17.93;49.36;101727.84;5036969;28;20187;-67
2024/01/30 07:34:12;;;;;;;18.93;8.83;;;;;;;17.96;49.35;101730.84;5020790;28;20440;-66
2024/01/30 07:36:38;;;;;;;13.37;8.37;;;;;;;17.97;49.44;101728.84;5037615;28;20198;-66
2024/01/30 07:39:03;;;;;;;21.43;9.47;;;;;;;17.95;49.57;101732.03;5052555;28;20214;-66
2024/01/30 07:41:29;;;;;;;15.77;8.13;;;;;;;17.96;49.47;101739.41;5054148;28;20171;-66
2024/01/30 07:43:54;;;;;;;13.60;7.50;;;;;;;17.96;49.06;101742.25;5036067;28;20187;-66
2024/01/30 07:46:19;;;;;;;17.37;7.40;;;;;;;18.01;49.61;101739.22;5037345;28;20175;-66
2024/01/30 07:48:45;;;;;;;14.20;7.37;;;;;;;17.98;49.65;101741.94;5020722;28;20170;-67
2024/01/30 07:51:10;;;;;;;15.67;7.30;;;;;;;17.97;49.88;101738.22;5035569;28;20189;-66
2024/01/30 07:53:36;;;;;;;15.33;7.20;;;;;;;17.98;49.51;101737.06;5070553;28;20211;-66
2024/01/30 07:56:02;;;;;;;18.30;8.57;;;;;;;18.04;49.72;101743.41;5052739;28;20179;-66
2024/01/30 07:58:28;;;;;;;13.00;7.73;;;;;;;18.06;49.71;101743.94;5051730;28;20218;-67
2024/01/30 08:00:53;;;;;;;16.47;7.47;;;;;;;18.00;49.74;101760.41;5052828;28;20779;-66
2024/01/30 08:03:19;;;;;;;14.13;7.73;;;;;;;18.01;50.09;101756.38;5051256;28;20183;-67
2024/01/30 08:05:44;;;;;;;17.57;8.73;;;;;;;18.00;50.05;101762.41;5035885;28;20182;-66
2024/01/30 08:08:10;;;;;;;12.47;7.30;;;;;;;17.95;50.13;101757.75;5035686;28;20203;-66
2024/01/30 08:10:35;;;;;;;12.90;8.10;;;;;;;18.03;49.98;101758.88;5020445;28;20657;-66
2024/01/30 08:13:01;;;;;;;11.90;7.13;;;;;;;17.98;50.23;101767.66;5033816;28;20175;-65
2024/01/30 08:15:27;;;;;;;9.60;7.20;;;;;;;17.98;50.36;101761.94;5053435;28;20214;-65
2024/01/30 08:17:57;;;;;;;16.20;7.90;;;;;;;18.00;49.89;101756.69;5016109;28;20207;-66
2024/01/30 08:20:25;;;;;;;12.30;7.17;;;;;;;18.01;50.01;101756.38;5033187;28;20636;-65
2024/01/30 08:22:51;;;;;;;17.33;8.33;;;;;;;18.00;50.08;101756.69;5052684;28;20441;-66
2024/01/30 08:25:17;;;;;;;12.37;7.70;;;;;;;18.00;50.48;101760.41;5036366;28;20812;-65
2024/01/30 08:27:42;;;;;;;14.00;7.03;;;;;;;18.08;49.83;101755.84;5052132;28;20717;-66
2024/01/30 08:30:08;;;;;;;15.43;6.67;;;;;;;18.00;49.98;101759.56;5071237;28;20638;-65
2024/01/30 08:32:34;;;;;;;12.73;8.50;;;;;;;17.99;50.46;101763.59;5018563;28;20273;-65
2024/01/30 08:34:59;;;;;;;11.77;8.30;;;;;;;17.98;50.31;101767.66;5052791;28;20187;-65
2024/01/30 08:37:25;;;;;;;12.73;7.00;;;;;;;18.02;50.20;101762.94;5018933;28;20864;-66
2024/01/30 08:39:50;;;;;;;12.50;7.17;;;;;;;18.00;50.06;101768.97;5046520;28;20233;-65
2024/01/30 08:42:18;;;;;;;14.07;7.13;;;;;;;17.95;50.59;101769.16;5036540;28;20187;-66
2024/01/30 08:44:43;;;;;;;12.57;7.50;;;;;;;17.97;50.21;101766.78;5019100;28;20294;-66
2024/01/30 08:47:09;;;;;;;13.30;7.37;;;;;;;17.98;50.22;101759.06;5050388;28;20441;-66
2024/01/30 08:49:34;;;;;;;12.67;6.97;;;;;;;17.96;50.78;101759.41;5035399;28;20167;-67
2024/01/30 08:52:00;;;;;;;12.37;7.40;;;;;;;17.97;50.28;101763.13;5050771;28;20511;-66
2024/01/30 08:54:25;;;;;;;10.30;6.70;;;;;;;18.06;49.95;101761.06;5034996;28;20546;-66
2024/01/30 08:56:53;;;;;;;9.53;6.67;;;;;;;18.00;50.12;101763.25;5034585;28;20651;-66
2024/01/30 08:59:18;;;;;;;10.63;6.73;;;;;;;17.99;50.91;101775.88;5051002;28;20546;-66
2024/01/30 09:01:44;;;;;;;10.60;7.20;;;;;;;18.01;50.43;101767.78;5034309;28;20437;-67
2024/01/30 09:04:09;;;;;;;13.47;7.60;;;;;;;18.03;50.01;101771.16;5069685;28;20527;-66
2024/01/30 09:06:35;;;;;;;11.30;7.20;;;;;;;18.00;50.48;101776.69;5051855;28;20187;-66
2024/01/30 09:09:00;;;;;;;12.50;7.07;;;;;;;17.97;50.46;101778.22;5039252;28;20176;-66
2024/01/30 09:11:26;;;;;;;14.90;7.03;;;;;;;17.97;50.69;101771.69;5029183;28;20191;-66
2024/01/30 09:13:52;;;;;;;10.20;6.40;;;;;;;18.01;50.17;101784.13;5035845;28;20252;-65
2024/01/30 09:16:17;;;;;;;12.60;7.00;;;;;;;17.98;50.43;101779.94;5034908;28;20191;-66
2024/01/30 09:18:42;;;;;;;12.67;7.17;;;;;;;17.91;51.02;101784.50;5036269;28;20206;-66
2024/01/30 09:21:08;;;;;;;9.77;6.80;;;;;;;17.92;51.03;101784.16;5053102;28;20175;-66
2024/01/30 09:23:33;;;;;;;11.33;6.93;;;;;;;17.97;50.71;101792.50;5052506;28;20175;-65
2024/01/30 09:25:59;;;;;;;12.40;7.03;;;;;;;18.01;50.75;101790.66;5032814;28;20190;-65
2024/01/30 09:28:24;;;;;;;10.60;6.57;;;;;;;17.96;50.71;101787.97;5052350;28;20269;-65
2024/01/30 09:30:50;;;;;;;9.83;6.73;;;;;;;17.96;50.83;101793.69;5052629;28;20183;-65
2024/01/30 09:33:16;;;;;;;11.83;6.73;;;;;;;17.98;51.03;101785.63;5051949;28;20175;-67
2024/01/30 09:35:41;;;;;;;14.97;6.57;;;;;;;17.92;51.29;101786.16;5052485;28;20606;-66
2024/01/30 09:38:06;;;;;;;9.23;6.97;;;;;;;17.93;50.84;101782.97;5052669;28;20202;-65
2024/01/30 09:40:32;;;;;;;9.90;6.57;;;;;;;17.93;50.94;101782.97;5052577;28;20163;-66
2024/01/30 09:42:57;;;;;;;9.93;6.50;;;;;;;17.93;51.50;101787.84;5017074;28;20191;-65
2024/01/30 09:45:24;;;;;;;9.37;6.77;;;;;;;17.94;51.14;101787.50;5035284;28;20619;-66
2024/01/30 09:47:49;;;;;;;9.57;6.07;;;;;;;17.91;51.57;101791.03;5051480;28;20182;-66
2024/01/30 09:50:15;;;;;;;9.80;6.00;;;;;;;17.96;50.81;101793.69;5033912;28;20441;-65
2024/01/30 09:52:40;;;;;;;10.23;6.63;;;;;;;17.97;51.68;101795.38;5051107;28;20187;-66
2024/01/30 09:55:06;;;;;;;11.40;7.37;;;;;;;17.96;51.48;101802.28;5027963;28;20183;-65
2024/01/30 09:57:32;;;;;;;9.67;5.50;;;;;;;17.97;51.74;101797.41;5014935;28;20180;-65
2024/01/30 09:59:57;;;;;;;13.00;6.90;;;;;;;17.97;51.38;101801.09;5027601;28;20426;-66
2024/01/30 10:02:23;;;;;;;12.63;6.63;;;;;;;17.93;51.22;101808.69;5030704;28;20199;-66
2024/01/30 10:04:49;;;;;;;9.50;6.43;;;;;;;17.93;51.61;101817.25;5014631;28;20176;-65
2024/01/30 10:07:15;;;;;;;11.17;6.70;;;;;;;17.95;51.77;101820.59;5015954;28;20214;-66
2024/01/30 10:09:40;;;;;;;11.23;6.37;;;;;;;17.97;51.23;101811.69;5044782;28;20436;-66
2024/01/30 10:12:07;;;;;;;7.90;6.43;;;;;;;17.97;51.52;101811.69;5052199;28;20699;-66
2024/01/30 10:14:33;;;;;;;9.80;6.60;;;;;;;17.94;51.37;101801.78;5050388;28;20198;-67
2024/01/30 10:16:59;;;;;;;10.70;7.20;;;;;;;17.98;51.22;101808.50;5034680;28;20455;-65
2024/01/30 10:19:24;;;;;;;8.17;5.77;;;;;;;17.96;51.85;101810.03;5054537;28;20268;-66
2024/01/30 10:21:50;;;;;;;9.40;6.40;;;;;;;18.02;51.25;101809.47;5072380;28;20885;-67
2024/01/30 10:24:15;;;;;;;9.20;5.87;;;;;;;17.97;51.35;101811.69;5021848;28;20187;-67
2024/01/30 10:26:43;;;;;;;10.23;5.53;;;;;;;17.98;51.13;101814.22;5038609;28;20171;-66
2024/01/30 10:29:08;;;;;;;10.87;6.67;;;;;;;17.97;51.54;101811.69;5074718;28;20223;-66
2024/01/30 10:31:34;;;;;;;9.67;6.50;;;;;;;17.99;52.20;101815.88;5063768;28;20801;-66
2024/01/30 10:33:59;;;;;;;11.17;5.93;;;;;;;17.98;51.61;101805.66;5038674;28;20198;-66
2024/01/30 10:36:30;;;;;;;8.00;5.47;;;;;;;17.96;51.68;101810.84;5042083;28;20171;-66
2024/01/30 10:38:56;;;;;;;11.60;6.17;;;;;;;18.00;51.39;101816.72;5038889;28;20191;-65
2024/01/30 10:41:26;;;;;;;9.70;6.60;;;;;;;17.98;51.54;101805.66;5038226;28;20420;-67
2024/01/30 10:44:08;;;;;;;10.13;5.90;;;;;;;17.95;52.03;101800.59;5051290;28;20256;-66
2024/01/30 10:46:34;;;;;;;10.20;6.60;;;;;;;18.02;51.76;101805.78;5051589;28;20449;-66
2024/01/30 10:49:00;;;;;;;10.93;5.77;;;;;;;17.97;51.75;101803.94;5067626;28;20527;-65
2024/01/30 10:51:26;;;;;;;10.23;6.60;;;;;;;17.99;51.96;101801.59;5037868;28;20475;-66
2024/01/30 10:53:51;;;;;;;8.47;5.33;;;;;;;17.99;51.29;101793.03;5037504;28;20180;-66
2024/01/30 10:56:17;;;;;;;8.53;5.73;;;;;;;18.00;51.70;101788.97;5037872;28;21301;-66
2024/01/30 10:58:42;;;;;;;7.13;5.70;;;;;;;18.00;51.47;101788.97;5055366;28;20207;-65
2024/01/30 11:01:08;;;;;;;9.67;5.83;;;;;;;18.00;51.52;101786.13;5057187;28;20182;-65
2024/01/30 11:03:36;;;;;;;11.37;6.13;;;;;;;17.99;51.59;101787.31;5024076;28;20195;-66
2024/01/30 11:06:02;;;;;;;12.30;6.17;;;;;;;18.02;51.97;101780.06;5019477;28;20167;-65
2024/01/30 11:08:30;;;;;;;9.10;5.97;;;;;;;18.03;51.68;101779.75;5021381;28;20464;-67
2024/01/30 11:10:57;;;;;;;8.30;6.33;;;;;;;18.00;51.86;101777.56;5055337;28;20429;-66